Myers Flat, California
Current Conditions -  °F | °C
As of 5:50 AM on Thursday 23 Oct 2014 (Local Time) from KFOT Reporting Station
Overcast Overcast  
Wind Chill: 59°   Ceiling: 2600
Heat Index: 59°   Visibility: 2.5mi
Dew Point: 57°   Wind: 13mph
Humidity: 94%   Direction: 120°ESE
Pressure: 29.93"   Gusts: NA
Location:  40.27°N, 123.87°W
Report Text: KFOT 231250Z AUTO 12011KT 2 1/2SM BKN026 OVC032 15/14 A2993 RMK AO1 P0009
Loading
Personal Weather Stations






























Interactive Weather Map
Tropical Storm Tracking
New forecast layout! Learn more

10-Day Weather Forecast

Advertisements
Track Severe Weather on mobile